sensor_id;sensor_type;location;lat;lon;timestamp;pressure;altitude;pressure_sealevel;temperature;humidity
59063;BME280;44851;45.648;9.004;2023-04-24T00:00:32;98112.09;;;15.00;67.47
59063;BME280;44851;45.648;9.004;2023-04-24T00:02:58;98110.22;;;14.94;67.26
59063;BME280;44851;45.648;9.004;2023-04-24T00:05:24;98120.91;;;14.93;67.68
59063;BME280;44851;45.648;9.004;2023-04-24T00:07:50;98125.72;;;14.89;66.99
59063;BME280;44851;45.648;9.004;2023-04-24T00:10:19;98115.84;;;14.70;66.60
59063;BME280;44851;45.648;9.004;2023-04-24T00:12:45;98105.84;;;14.80;67.06
59063;BME280;44851;45.648;9.004;2023-04-24T00:15:11;98119.13;;;14.72;67.54
59063;BME280;44851;45.648;9.004;2023-04-24T00:17:37;98112.75;;;14.81;67.60
59063;BME280;44851;45.648;9.004;2023-04-24T00:20:03;98109.94;;;14.83;67.27
59063;BME280;44851;45.648;9.004;2023-04-24T00:22:30;98107.50;;;14.81;66.92
59063;BME280;44851;45.648;9.004;2023-04-24T00:24:56;98118.22;;;14.65;65.98
59063;BME280;44851;45.648;9.004;2023-04-24T00:27:22;98116.25;;;14.67;65.45
59063;BME280;44851;45.648;9.004;2023-04-24T00:29:47;98113.72;;;14.59;66.57
59063;BME280;44851;45.648;9.004;2023-04-24T00:32:13;98107.25;;;14.55;65.68
59063;BME280;44851;45.648;9.004;2023-04-24T00:34:40;98110.84;;;14.53;66.34
59063;BME280;44851;45.648;9.004;2023-04-24T00:37:05;98098.19;;;14.57;65.78
59063;BME280;44851;45.648;9.004;2023-04-24T00:39:31;98090.50;;;14.56;66.01
59063;BME280;44851;45.648;9.004;2023-04-24T00:41:56;98079.88;;;14.64;66.73
59063;BME280;44851;45.648;9.004;2023-04-24T00:44:22;98074.53;;;14.72;66.79
59063;BME280;44851;45.648;9.004;2023-04-24T00:46:49;98065.16;;;14.63;67.26
59063;BME280;44851;45.648;9.004;2023-04-24T00:49:18;98070.44;;;14.48;65.83
59063;BME280;44851;45.648;9.004;2023-04-24T00:51:44;98074.84;;;14.62;67.20
59063;BME280;44851;45.648;9.004;2023-04-24T00:54:11;98077.41;;;14.56;66.48
59063;BME280;44851;45.648;9.004;2023-04-24T00:56:37;98066.50;;;14.59;66.69
59063;BME280;44851;45.648;9.004;2023-04-24T00:59:03;98070.91;;;14.51;66.03
59063;BME280;44851;45.648;9.004;2023-04-24T01:01:29;98062.16;;;14.23;66.08
59063;BME280;44851;45.648;9.004;2023-04-24T01:03:56;98060.78;;;14.48;67.32
59063;BME280;44851;45.648;9.004;2023-04-24T01:06:23;98065.22;;;14.48;67.62
59063;BME280;44851;45.648;9.004;2023-04-24T01:08:52;98058.66;;;14.37;66.94
59063;BME280;44851;45.648;9.004;2023-04-24T01:11:18;98045.84;;;14.49;67.98
59063;BME280;44851;45.648;9.004;2023-04-24T01:13:44;98043.31;;;14.34;66.98
59063;BME280;44851;45.648;9.004;2023-04-24T01:16:10;98039.28;;;14.38;68.39
59063;BME280;44851;45.648;9.004;2023-04-24T01:18:35;98038.38;;;14.24;67.86
59063;BME280;44851;45.648;9.004;2023-04-24T01:21:03;98033.31;;;14.44;68.42
59063;BME280;44851;45.648;9.004;2023-04-24T01:23:29;98034.63;;;14.34;67.72
59063;BME280;44851;45.648;9.004;2023-04-24T01:25:55;98038.38;;;14.46;68.51
59063;BME280;44851;45.648;9.004;2023-04-24T01:28:21;98042.50;;;14.34;68.24
59063;BME280;44851;45.648;9.004;2023-04-24T01:30:47;98036.50;;;14.40;68.81
59063;BME280;44851;45.648;9.004;2023-04-24T01:33:12;98035.31;;;14.21;68.07
59063;BME280;44851;45.648;9.004;2023-04-24T01:35:38;98032.31;;;14.24;68.60
59063;BME280;44851;45.648;9.004;2023-04-24T01:38:04;98055.16;;;14.15;68.32
59063;BME280;44851;45.648;9.004;2023-04-24T01:40:31;98055.63;;;14.19;69.04
59063;BME280;44851;45.648;9.004;2023-04-24T01:42:57;98053.28;;;14.24;68.20
59063;BME280;44851;45.648;9.004;2023-04-24T01:45:23;98054.56;;;14.13;69.00
59063;BME280;44851;45.648;9.004;2023-04-24T01:47:49;98054.63;;;14.20;68.78
59063;BME280;44851;45.648;9.004;2023-04-24T01:50:15;98057.59;;;14.17;68.01
59063;BME280;44851;45.648;9.004;2023-04-24T01:52:40;98056.38;;;14.13;67.96
59063;BME280;44851;45.648;9.004;2023-04-24T01:55:06;98046.47;;;13.93;67.84
59063;BME280;44851;45.648;9.004;2023-04-24T01:57:33;98047.66;;;13.91;66.80
59063;BME280;44851;45.648;9.004;2023-04-24T01:59:58;98045.38;;;14.03;67.92
59063;BME280;44851;45.648;9.004;2023-04-24T02:02:24;98045.38;;;14.03;67.53
59063;BME280;44851;45.648;9.004;2023-04-24T02:04:55;98038.50;;;14.02;67.53
59063;BME280;44851;45.648;9.004;2023-04-24T02:07:21;98031.09;;;13.90;67.50
59063;BME280;44851;45.648;9.004;2023-04-24T02:09:46;98031.56;;;13.94;67.98
59063;BME280;44851;45.648;9.004;2023-04-24T02:12:12;98028.75;;;13.95;67.72
59063;BME280;44851;45.648;9.004;2023-04-24T02:14:37;98028.13;;;13.93;66.83
59063;BME280;44851;45.648;9.004;2023-04-24T02:17:03;98026.50;;;13.92;67.12
59063;BME280;44851;45.648;9.004;2023-04-24T02:19:30;98025.50;;;13.93;67.08
59063;BME280;44851;45.648;9.004;2023-04-24T02:21:55;98018.47;;;13.79;67.66
59063;BME280;44851;45.648;9.004;2023-04-24T02:24:21;98017.50;;;13.80;67.27
59063;BME280;44851;45.648;9.004;2023-04-24T02:26:46;98016.22;;;13.91;67.45
59063;BME280;44851;45.648;9.004;2023-04-24T02:29:12;98008.41;;;13.76;66.92
59063;BME280;44851;45.648;9.004;2023-04-24T02:31:37;98008.19;;;13.78;67.23
59063;BME280;44851;45.648;9.004;2023-04-24T02:34:02;98010.06;;;13.84;67.23
59063;BME280;44851;45.648;9.004;2023-04-24T02:36:28;98007.84;;;13.81;67.22
59063;BME280;44851;45.648;9.004;2023-04-24T02:38:53;98002.78;;;13.79;67.31
59063;BME280;44851;45.648;9.004;2023-04-24T02:41:19;98001.81;;;13.80;67.28
59063;BME280;44851;45.648;9.004;2023-04-24T02:43:44;97993.16;;;13.65;66.88
59063;BME280;44851;45.648;9.004;2023-04-24T02:46:10;97995.31;;;13.61;67.62
59063;BME280;44851;45.648;9.004;2023-04-24T02:48:36;97986.91;;;13.66;67.64
59063;BME280;44851;45.648;9.004;2023-04-24T02:51:01;97982.31;;;13.68;67.68
59063;BME280;44851;45.648;9.004;2023-04-24T02:53:26;97995.78;;;13.65;67.09
59063;BME280;44851;45.648;9.004;2023-04-24T02:55:52;97993.63;;;13.54;67.30
59063;BME280;44851;45.648;9.004;2023-04-24T02:58:17;97993.44;;;13.40;66.23
59063;BME280;44851;45.648;9.004;2023-04-24T03:00:45;97984.44;;;13.43;67.44
59063;BME280;44851;45.648;9.004;2023-04-24T03:03:11;97978.94;;;13.38;66.42
59063;BME280;44851;45.648;9.004;2023-04-24T03:05:36;97977.59;;;13.27;66.07
59063;BME280;44851;45.648;9.004;2023-04-24T03:08:02;97978.94;;;13.23;66.80
59063;BME280;44851;45.648;9.004;2023-04-24T03:10:27;97978.47;;;13.19;67.04
59063;BME280;44851;45.648;9.004;2023-04-24T03:12:53;97981.91;;;13.20;67.33
59063;BME280;44851;45.648;9.004;2023-04-24T03:15:20;97981.97;;;13.12;67.21
59063;BME280;44851;45.648;9.004;2023-04-24T03:17:45;97982.88;;;13.04;66.75
59063;BME280;44851;45.648;9.004;2023-04-24T03:20:11;97982.97;;;13.11;66.70
59063;BME280;44851;45.648;9.004;2023-04-24T03:22:36;97984.06;;;13.02;66.96
59063;BME280;44851;45.648;9.004;2023-04-24T03:25:02;97987.66;;;13.01;66.80
59063;BME280;44851;45.648;9.004;2023-04-24T03:27:27;97983.31;;;13.08;67.27
59063;BME280;44851;45.648;9.004;2023-04-24T03:29:53;97973.78;;;13.00;66.41
59063;BME280;44851;45.648;9.004;2023-04-24T03:32:22;97962.31;;;13.01;66.83
59063;BME280;44851;45.648;9.004;2023-04-24T03:34:48;97954.63;;;13.00;65.81
59063;BME280;44851;45.648;9.004;2023-04-24T03:37:14;97962.03;;;12.81;65.74
59063;BME280;44851;45.648;9.004;2023-04-24T03:39:39;97957.13;;;12.78;65.63
59063;BME280;44851;45.648;9.004;2023-04-24T03:42:05;97966.34;;;12.74;65.45
59063;BME280;44851;45.648;9.004;2023-04-24T03:44:30;97954.97;;;12.67;65.15
59063;BME280;44851;45.648;9.004;2023-04-24T03:46:57;97953.84;;;12.47;66.66
59063;BME280;44851;45.648;9.004;2023-04-24T03:49:23;97961.44;;;12.56;65.45
59063;BME280;44851;45.648;9.004;2023-04-24T03:51:48;97973.91;;;12.69;65.76
59063;BME280;44851;45.648;9.004;2023-04-24T03:54:14;97972.03;;;12.63;64.82
59063;BME280;44851;45.648;9.004;2023-04-24T03:56:39;97971.84;;;12.64;64.80
59063;BME280;44851;45.648;9.004;2023-04-24T03:59:05;97974.25;;;12.66;64.21
59063;BME280;44851;45.648;9.004;2023-04-24T04:01:30;97971.59;;;12.74;65.07
59063;BME280;44851;45.648;9.004;2023-04-24T04:03:56;97975.88;;;12.67;63.96
59063;BME280;44851;45.648;9.004;2023-04-24T04:06:21;97991.56;;;12.67;64.09
59063;BME280;44851;45.648;9.004;2023-04-24T04:08:47;97984.16;;;12.56;64.31
59063;BME280;44851;45.648;9.004;2023-04-24T04:11:12;97983.81;;;12.59;64.68
59063;BME280;44851;45.648;9.004;2023-04-24T04:13:38;97984.88;;;12.50;64.47
59063;BME280;44851;45.648;9.004;2023-04-24T04:16:04;97991.31;;;12.39;64.79
59063;BME280;44851;45.648;9.004;2023-04-24T04:18:29;97989.69;;;12.38;64.20
59063;BME280;44851;45.648;9.004;2023-04-24T04:20:55;97993.75;;;12.40;64.70
59063;BME280;44851;45.648;9.004;2023-04-24T04:23:22;98000.34;;;12.36;65.41
59063;BME280;44851;45.648;9.004;2023-04-24T04:25:47;97998.69;;;12.35;65.09
59063;BME280;44851;45.648;9.004;2023-04-24T04:28:13;97999.41;;;12.29;64.54
59063;BME280;44851;45.648;9.004;2023-04-24T04:30:38;98002.00;;;12.29;64.59
59063;BME280;44851;45.648;9.004;2023-04-24T04:33:05;98004.28;;;12.32;65.77
59063;BME280;44851;45.648;9.004;2023-04-24T04:35:30;98002.72;;;12.23;64.86
59063;BME280;44851;45.648;9.004;2023-04-24T04:37:56;98012.16;;;12.24;64.93
59063;BME280;44851;45.648;9.004;2023-04-24T04:40:24;98007.94;;;12.23;64.69
59063;BME280;44851;45.648;9.004;2023-04-24T04:42:50;98014.16;;;12.22;64.96
59063;BME280;44851;45.648;9.004;2023-04-24T04:45:18;98013.38;;;12.13;64.54
59063;BME280;44851;45.648;9.004;2023-04-24T04:47:43;98020.53;;;12.20;65.09
59063;BME280;44851;45.648;9.004;2023-04-24T04:50:09;98013.91;;;12.09;64.84
59063;BME280;44851;45.648;9.004;2023-04-24T04:52:35;98015.38;;;12.11;65.00
59063;BME280;44851;45.648;9.004;2023-04-24T04:55:01;98011.94;;;12.11;64.68
59063;BME280;44851;45.648;9.004;2023-04-24T04:57:27;98019.25;;;12.15;64.68
59063;BME280;44851;45.648;9.004;2023-04-24T04:59:52;98025.00;;;12.11;65.46
59063;BME280;44851;45.648;9.004;2023-04-24T05:02:17;98017.06;;;12.04;65.10
59063;BME280;44851;45.648;9.004;2023-04-24T05:04:43;98026.69;;;11.96;65.32
59063;BME280;44851;45.648;9.004;2023-04-24T05:07:08;98020.84;;;11.94;65.51
59063;BME280;44851;45.648;9.004;2023-04-24T05:09:34;98021.25;;;11.74;66.27
59063;BME280;44851;45.648;9.004;2023-04-24T05:11:59;98024.16;;;11.79;65.99
59063;BME280;44851;45.648;9.004;2023-04-24T05:14:25;98026.22;;;11.92;65.35
59063;BME280;44851;45.648;9.004;2023-04-24T05:16:50;98028.97;;;11.99;65.59
59063;BME280;44851;45.648;9.004;2023-04-24T05:19:16;98040.72;;;12.03;65.55
59063;BME280;44851;45.648;9.004;2023-04-24T05:21:41;98039.41;;;11.99;65.93
59063;BME280;44851;45.648;9.004;2023-04-24T05:24:07;98038.94;;;11.95;65.64
59063;BME280;44851;45.648;9.004;2023-04-24T05:26:32;98036.50;;;11.94;65.32
59063;BME280;44851;45.648;9.004;2023-04-24T05:28:58;98026.72;;;11.87;65.19
59063;BME280;44851;45.648;9.004;2023-04-24T05:31:24;98032.44;;;11.91;64.96
59063;BME280;44851;45.648;9.004;2023-04-24T05:33:50;98037.94;;;12.04;65.98
59063;BME280;44851;45.648;9.004;2023-04-24T05:36:16;98043.34;;;11.95;65.09
59063;BME280;44851;45.648;9.004;2023-04-24T05:38:41;98046.28;;;12.00;66.24
59063;BME280;44851;45.648;9.004;2023-04-24T05:41:06;98053.31;;;11.91;66.20
59063;BME280;44851;45.648;9.004;2023-04-24T05:43:32;98059.34;;;12.00;65.97
59063;BME280;44851;45.648;9.004;2023-04-24T05:45:57;98052.66;;;11.97;65.67
59063;BME280;44851;45.648;9.004;2023-04-24T05:48:23;98050.84;;;11.98;66.32
59063;BME280;44851;45.648;9.004;2023-04-24T05:50:48;98050.00;;;12.05;65.48
59063;BME280;44851;45.648;9.004;2023-04-24T05:53:14;98050.34;;;12.02;65.22
59063;BME280;44851;45.648;9.004;2023-04-24T05:55:39;98046.94;;;11.94;64.61
59063;BME280;44851;45.648;9.004;2023-04-24T05:58:05;98056.06;;;11.98;65.38
59063;BME280;44851;45.648;9.004;2023-04-24T06:00:31;98055.41;;;11.96;66.17
59063;BME280;44851;45.648;9.004;2023-04-24T06:02:56;98057.03;;;11.97;65.98
59063;BME280;44851;45.648;9.004;2023-04-24T06:05:22;98060.63;;;11.96;65.68
59063;BME280;44851;45.648;9.004;2023-04-24T06:07:48;98069.28;;;12.04;66.00
59063;BME280;44851;45.648;9.004;2023-04-24T06:10:13;98069.44;;;12.03;66.39
59063;BME280;44851;45.648;9.004;2023-04-24T06:12:39;98069.00;;;12.22;66.43
59063;BME280;44851;45.648;9.004;2023-04-24T06:15:05;98070.22;;;12.34;65.65
59063;BME280;44851;45.648;9.004;2023-04-24T06:17:31;98076.34;;;12.50;65.33
59063;BME280;44851;45.648;9.004;2023-04-24T06:19:57;98068.09;;;12.61;64.45
59063;BME280;44851;45.648;9.004;2023-04-24T06:22:22;98080.16;;;12.85;63.56
59063;BME280;44851;45.648;9.004;2023-04-24T06:24:48;98076.22;;;13.04;63.77
59063;BME280;44851;45.648;9.004;2023-04-24T06:27:13;98084.22;;;13.25;63.34
59063;BME280;44851;45.648;9.004;2023-04-24T06:29:39;98085.00;;;13.48;62.08
59063;BME280;44851;45.648;9.004;2023-04-24T06:32:04;98082.91;;;13.59;61.78
59063;BME280;44851;45.648;9.004;2023-04-24T06:34:30;98076.91;;;13.94;60.80
59063;BME280;44851;45.648;9.004;2023-04-24T06:36:56;98068.91;;;14.17;60.70
59063;BME280;44851;45.648;9.004;2023-04-24T06:39:21;98058.28;;;14.40;59.91
59063;BME280;44851;45.648;9.004;2023-04-24T06:41:47;98057.41;;;14.33;59.96
59063;BME280;44851;45.648;9.004;2023-04-24T06:44:12;98058.72;;;14.65;59.08
59063;BME280;44851;45.648;9.004;2023-04-24T06:46:40;98068.69;;;14.98;60.10
59063;BME280;44851;45.648;9.004;2023-04-24T06:49:06;98060.56;;;15.21;60.28
59063;BME280;44851;45.648;9.004;2023-04-24T06:51:31;98080.16;;;15.46;61.12
59063;BME280;44851;45.648;9.004;2023-04-24T06:53:58;98082.81;;;15.53;59.44
59063;BME280;44851;45.648;9.004;2023-04-24T06:56:24;98079.88;;;15.76;59.86
59063;BME280;44851;45.648;9.004;2023-04-24T06:58:50;98079.97;;;15.96;59.40
59063;BME280;44851;45.648;9.004;2023-04-24T07:01:16;98081.66;;;16.10;57.47
59063;BME280;44851;45.648;9.004;2023-04-24T07:03:41;98091.00;;;16.19;58.58
59063;BME280;44851;45.648;9.004;2023-04-24T07:06:07;98086.19;;;16.29;58.52
59063;BME280;44851;45.648;9.004;2023-04-24T07:08:33;98089.03;;;16.34;57.32
59063;BME280;44851;45.648;9.004;2023-04-24T07:10:59;98092.72;;;16.53;57.16
59063;BME280;44851;45.648;9.004;2023-04-24T07:13:24;98091.09;;;16.66;57.16
59063;BME280;44851;45.648;9.004;2023-04-24T07:15:50;98098.81;;;16.74;55.87
59063;BME280;44851;45.648;9.004;2023-04-24T07:18:17;98093.16;;;16.83;56.23
59063;BME280;44851;45.648;9.004;2023-04-24T07:20:43;98097.59;;;16.83;55.71
59063;BME280;44851;45.648;9.004;2023-04-24T07:23:09;98094.75;;;16.78;52.87
59063;BME280;44851;45.648;9.004;2023-04-24T07:25:35;98089.50;;;16.91;55.05
59063;BME280;44851;45.648;9.004;2023-04-24T07:28:00;98082.66;;;17.17;57.75
59063;BME280;44851;45.648;9.004;2023-04-24T07:30:26;98088.13;;;17.22;55.65
59063;BME280;44851;45.648;9.004;2023-04-24T07:32:53;98086.47;;;17.41;55.90
59063;BME280;44851;45.648;9.004;2023-04-24T07:35:19;98085.84;;;17.58;55.07
59063;BME280;44851;45.648;9.004;2023-04-24T07:37:45;98083.19;;;17.52;51.48
59063;BME280;44851;45.648;9.004;2023-04-24T07:40:14;98080.19;;;17.48;50.26
59063;BME280;44851;45.648;9.004;2023-04-24T07:42:39;98081.38;;;17.46;49.53
59063;BME280;44851;45.648;9.004;2023-04-24T07:45:06;98080.13;;;17.61;52.31
59063;BME280;44851;45.648;9.004;2023-04-24T07:47:32;98076.44;;;17.76;50.19
59063;BME280;44851;45.648;9.004;2023-04-24T07:49:58;98078.06;;;17.77;52.34
59063;BME280;44851;45.648;9.004;2023-04-24T07:52:24;98076.19;;;17.84;52.90
59063;BME280;44851;45.648;9.004;2023-04-24T07:54:50;98069.88;;;18.05;51.38
59063;BME280;44851;45.648;9.004;2023-04-24T07:57:16;98078.41;;;18.00;48.32
59063;BME280;44851;45.648;9.004;2023-04-24T07:59:41;98083.97;;;18.24;52.54
59063;BME280;44851;45.648;9.004;2023-04-24T08:02:07;98084.84;;;18.17;49.52
59063;BME280;44851;45.648;9.004;2023-04-24T08:04:33;98084.84;;;18.11;47.48
59063;BME280;44851;45.648;9.004;2023-04-24T08:06:58;98080.38;;;18.18;46.87
59063;BME280;44851;45.648;9.004;2023-04-24T08:09:24;98087.22;;;18.26;49.51
59063;BME280;44851;45.648;9.004;2023-04-24T08:11:50;98086.69;;;18.49;50.67
59063;BME280;44851;45.648;9.004;2023-04-24T08:14:15;98084.81;;;18.56;48.70
59063;BME280;44851;45.648;9.004;2023-04-24T08:16:41;98088.09;;;18.51;48.62
59063;BME280;44851;45.648;9.004;2023-04-24T08:19:07;98097.25;;;18.42;46.15
59063;BME280;44851;45.648;9.004;2023-04-24T08:21:32;98092.50;;;18.57;45.70
59063;BME280;44851;45.648;9.004;2023-04-24T08:23:58;98097.06;;;18.82;47.41
59063;BME280;44851;45.648;9.004;2023-04-24T08:26:23;98097.00;;;18.88;45.75
59063;BME280;44851;45.648;9.004;2023-04-24T08:28:49;98084.75;;;18.94;45.78
59063;BME280;44851;45.648;9.004;2023-04-24T08:31:14;98084.94;;;18.99;45.84
59063;BME280;44851;45.648;9.004;2023-04-24T08:33:40;98089.50;;;19.10;49.24
59063;BME280;44851;45.648;9.004;2023-04-24T08:36:06;98088.22;;;19.38;50.02
59063;BME280;44851;45.648;9.004;2023-04-24T08:38:33;98086.66;;;19.55;46.46
59063;BME280;44851;45.648;9.004;2023-04-24T08:40:59;98086.38;;;19.63;44.25
59063;BME280;44851;45.648;9.004;2023-04-24T08:43:26;98080.81;;;19.71;46.25
59063;BME280;44851;45.648;9.004;2023-04-24T08:45:52;98075.94;;;19.68;45.36
59063;BME280;44851;45.648;9.004;2023-04-24T08:48:18;98074.19;;;19.81;45.19
59063;BME280;44851;45.648;9.004;2023-04-24T08:50:44;98083.00;;;19.93;47.34
59063;BME280;44851;45.648;9.004;2023-04-24T08:53:10;98085.84;;;19.91;46.37
59063;BME280;44851;45.648;9.004;2023-04-24T08:55:37;98082.88;;;20.18;46.84
59063;BME280;44851;45.648;9.004;2023-04-24T08:58:03;98083.66;;;20.37;48.53
59063;BME280;44851;45.648;9.004;2023-04-24T09:00:29;98074.09;;;20.36;45.83
59063;BME280;44851;45.648;9.004;2023-04-24T09:02:55;98081.31;;;20.29;42.41
59063;BME280;44851;45.648;9.004;2023-04-24T09:05:22;98089.09;;;20.42;45.96
59063;BME280;44851;45.648;9.004;2023-04-24T09:07:56;98086.34;;;20.48;42.55
59063;BME280;44851;45.648;9.004;2023-04-24T09:10:23;98087.16;;;20.49;45.91
59063;BME280;44851;45.648;9.004;2023-04-24T09:12:50;98078.28;;;20.43;43.18
59063;BME280;44851;45.648;9.004;2023-04-24T09:15:16;98080.16;;;20.55;44.08
59063;BME280;44851;45.648;9.004;2023-04-24T09:17:42;98088.50;;;20.70;42.87
59063;BME280;44851;45.648;9.004;2023-04-24T09:20:08;98073.66;;;20.81;45.18
59063;BME280;44851;45.648;9.004;2023-04-24T09:22:34;98084.88;;;21.06;46.17
59063;BME280;44851;45.648;9.004;2023-04-24T09:25:04;98084.50;;;20.91;41.24
59063;BME280;44851;45.648;9.004;2023-04-24T09:27:31;98087.47;;;20.83;43.84
59063;BME280;44851;45.648;9.004;2023-04-24T09:29:58;98084.47;;;20.67;39.29
59063;BME280;44851;45.648;9.004;2023-04-24T09:32:24;98093.53;;;20.71;41.41
59063;BME280;44851;45.648;9.004;2023-04-24T09:35:09;98095.53;;;20.88;42.19
59063;BME280;44851;45.648;9.004;2023-04-24T09:37:39;98100.13;;;20.81;40.73
59063;BME280;44851;45.648;9.004;2023-04-24T09:40:17;98093.00;;;20.93;41.79
59063;BME280;44851;45.648;9.004;2023-04-24T09:42:56;98093.97;;;21.10;41.57
59063;BME280;44851;45.648;9.004;2023-04-24T09:45:44;98092.50;;;21.14;41.78
59063;BME280;44851;45.648;9.004;2023-04-24T09:48:10;98080.59;;;21.05;39.28
59063;BME280;44851;45.648;9.004;2023-04-24T09:50:35;98078.66;;;21.36;43.04
59063;BME280;44851;45.648;9.004;2023-04-24T09:53:02;98081.44;;;21.52;44.03
59063;BME280;44851;45.648;9.004;2023-04-24T09:55:28;98077.81;;;21.70;41.81
59063;BME280;44851;45.648;9.004;2023-04-24T09:57:56;98082.69;;;22.14;43.74
59063;BME280;44851;45.648;9.004;2023-04-24T10:03:02;98072.84;;;22.43;39.90
59063;BME280;44851;45.648;9.004;2023-04-24T10:05:29;98078.56;;;22.35;42.31
59063;BME280;44851;45.648;9.004;2023-04-24T10:07:57;98085.88;;;22.56;42.90
59063;BME280;44851;45.648;9.004;2023-04-24T10:10:23;98089.44;;;22.62;40.33
59063;BME280;44851;45.648;9.004;2023-04-24T10:12:50;98098.00;;;22.80;43.49
59063;BME280;44851;45.648;9.004;2023-04-24T10:15:16;98094.94;;;22.89;40.82
59063;BME280;44851;45.648;9.004;2023-04-24T10:17:48;98088.41;;;22.51;37.37
59063;BME280;44851;45.648;9.004;2023-04-24T10:20:25;98086.06;;;22.66;38.10
59063;BME280;44851;45.648;9.004;2023-04-24T10:22:52;98088.81;;;22.71;40.44
59063;BME280;44851;45.648;9.004;2023-04-24T10:25:23;98089.94;;;22.92;39.93
59063;BME280;44851;45.648;9.004;2023-04-24T10:27:50;98079.78;;;22.89;37.91
59063;BME280;44851;45.648;9.004;2023-04-24T10:30:16;98086.22;;;22.76;36.11
59063;BME280;44851;45.648;9.004;2023-04-24T10:32:42;98081.97;;;22.47;34.61
59063;BME280;44851;45.648;9.004;2023-04-24T10:35:09;98080.81;;;22.43;35.64
59063;BME280;44851;45.648;9.004;2023-04-24T10:37:37;98070.63;;;22.51;34.61
59063;BME280;44851;45.648;9.004;2023-04-24T10:40:03;98071.91;;;22.77;35.69
59063;BME280;44851;45.648;9.004;2023-04-24T10:42:30;98075.53;;;22.88;36.20
59063;BME280;44851;45.648;9.004;2023-04-24T10:44:56;98077.84;;;22.84;36.13
59063;BME280;44851;45.648;9.004;2023-04-24T10:47:23;98073.03;;;22.81;35.50
59063;BME280;44851;45.648;9.004;2023-04-24T10:49:50;98072.38;;;22.74;34.23
59063;BME280;44851;45.648;9.004;2023-04-24T10:52:16;98070.38;;;22.81;34.51
59063;BME280;44851;45.648;9.004;2023-04-24T10:54:45;98078.97;;;22.89;35.48
59063;BME280;44851;45.648;9.004;2023-04-24T11:00:09;98073.34;;;23.02;33.51
59063;BME280;44851;45.648;9.004;2023-04-24T11:02:38;98070.09;;;23.17;34.92
59063;BME280;44851;45.648;9.004;2023-04-24T11:05:06;98075.56;;;23.44;37.09
59063;BME280;44851;45.648;9.004;2023-04-24T11:10:38;98068.31;;;23.22;35.53
59063;BME280;44851;45.648;9.004;2023-04-24T11:13:04;98073.97;;;23.43;36.39
59063;BME280;44851;45.648;9.004;2023-04-24T11:15:30;98070.25;;;23.44;34.51
59063;BME280;44851;45.648;9.004;2023-04-24T11:17:55;98065.72;;;23.61;34.67
59063;BME280;44851;45.648;9.004;2023-04-24T11:20:23;98064.19;;;23.70;35.23
59063;BME280;44851;45.648;9.004;2023-04-24T11:22:52;98072.44;;;23.69;36.90
59063;BME280;44851;45.648;9.004;2023-04-24T11:25:18;98063.44;;;23.92;36.50
59063;BME280;44851;45.648;9.004;2023-04-24T11:27:44;98058.91;;;24.14;37.22
59063;BME280;44851;45.648;9.004;2023-04-24T11:30:18;98056.94;;;24.04;32.32
59063;BME280;44851;45.648;9.004;2023-04-24T11:32:47;98058.38;;;24.17;31.29
59063;BME280;44851;45.648;9.004;2023-04-24T11:37:45;98043.09;;;24.34;34.14
59063;BME280;44851;45.648;9.004;2023-04-24T11:40:13;98042.31;;;24.34;31.63
59063;BME280;44851;45.648;9.004;2023-04-24T11:42:46;98046.69;;;24.18;33.53
59063;BME280;44851;45.648;9.004;2023-04-24T11:45:14;98047.13;;;24.37;34.51
59063;BME280;44851;45.648;9.004;2023-04-24T11:47:40;98042.63;;;24.37;34.72
59063;BME280;44851;45.648;9.004;2023-04-24T11:50:11;98045.41;;;24.53;32.79
59063;BME280;44851;45.648;9.004;2023-04-24T11:52:39;98040.28;;;24.73;33.18
59063;BME280;44851;45.648;9.004;2023-04-24T11:55:07;98034.44;;;24.76;32.05
59063;BME280;44851;45.648;9.004;2023-04-24T11:57:33;98028.53;;;24.69;28.53
59063;BME280;44851;45.648;9.004;2023-04-24T12:00:04;98033.41;;;24.82;29.42
59063;BME280;44851;45.648;9.004;2023-04-24T12:02:33;98025.53;;;24.98;30.41
59063;BME280;44851;45.648;9.004;2023-04-24T12:04:58;98019.22;;;24.72;28.03
59063;BME280;44851;45.648;9.004;2023-04-24T12:07:24;98021.06;;;24.71;29.85
59063;BME280;44851;45.648;9.004;2023-04-24T12:12:24;98026.94;;;25.05;30.60
59063;BME280;44851;45.648;9.004;2023-04-24T12:14:55;98014.19;;;25.17;30.41
59063;BME280;44851;45.648;9.004;2023-04-24T12:17:26;98010.59;;;24.97;29.52
59063;BME280;44851;45.648;9.004;2023-04-24T12:19:51;98007.59;;;25.20;32.58
59063;BME280;44851;45.648;9.004;2023-04-24T12:22:18;98008.38;;;25.21;30.51
59063;BME280;44851;45.648;9.004;2023-04-24T12:25:01;98005.34;;;25.12;29.39
59063;BME280;44851;45.648;9.004;2023-04-24T12:27:33;98006.66;;;25.47;28.57
59063;BME280;44851;45.648;9.004;2023-04-24T12:30:00;98010.09;;;25.42;29.67
59063;BME280;44851;45.648;9.004;2023-04-24T12:32:26;97996.53;;;25.59;31.34
59063;BME280;44851;45.648;9.004;2023-04-24T12:34:53;97990.66;;;25.57;28.00
59063;BME280;44851;45.648;9.004;2023-04-24T12:37:18;97981.53;;;25.37;29.60
59063;BME280;44851;45.648;9.004;2023-04-24T12:40:05;97990.31;;;25.33;28.20
59063;BME280;44851;45.648;9.004;2023-04-24T12:42:31;97988.53;;;25.59;30.46
59063;BME280;44851;45.648;9.004;2023-04-24T12:44:59;97987.94;;;25.36;29.33
59063;BME280;44851;45.648;9.004;2023-04-24T12:47:25;97995.50;;;25.65;29.12
59063;BME280;44851;45.648;9.004;2023-04-24T12:49:51;97981.66;;;25.68;29.82
59063;BME280;44851;45.648;9.004;2023-04-24T12:52:18;97984.06;;;25.80;28.74
59063;BME280;44851;45.648;9.004;2023-04-24T12:54:45;97979.81;;;25.79;27.52
59063;BME280;44851;45.648;9.004;2023-04-24T12:57:11;97976.31;;;25.78;26.51
59063;BME280;44851;45.648;9.004;2023-04-24T12:59:36;97983.31;;;25.84;26.03
59063;BME280;44851;45.648;9.004;2023-04-24T13:02:02;97976.31;;;25.68;24.54
59063;BME280;44851;45.648;9.004;2023-04-24T13:04:27;97973.66;;;25.73;25.75
59063;BME280;44851;45.648;9.004;2023-04-24T13:06:53;97965.88;;;25.66;24.22
59063;BME280;44851;45.648;9.004;2023-04-24T13:09:18;97969.38;;;25.77;25.32